createdAt,value
2018-02-22T00:00:10.987Z,98549.86
2018-02-22T00:01:13.907Z,98553.34
2018-02-22T00:02:17.138Z,98552.03
2018-02-22T00:03:20.053Z,98549.86
2018-02-22T00:04:22.986Z,98553.34
2018-02-22T00:05:25.940Z,98555.23
2018-02-22T00:06:28.905Z,98543.02
2018-02-22T00:07:31.819Z,98549.47
2018-02-22T00:08:35.069Z,98536.04
2018-02-22T00:09:38.007Z,98550.75
2018-02-22T00:10:40.949Z,98544.42
2018-02-22T00:11:43.781Z,98542.52
2018-02-22T00:12:46.611Z,98545.09
2018-02-22T00:13:49.441Z,98547.80
2018-02-22T00:14:52.680Z,98540.23
2018-02-22T00:15:55.493Z,98539.51
2018-02-22T00:16:58.421Z,98543.03
2018-02-22T00:18:01.384Z,98540.07
2018-02-22T00:19:04.283Z,98539.60
2018-02-22T00:20:07.264Z,98539.99
2018-02-22T00:21:10.491Z,98541.73
2018-02-22T00:22:13.419Z,98532.84
2018-02-22T00:23:16.377Z,98542.91
2018-02-22T00:24:19.299Z,98534.14
2018-02-22T00:25:22.263Z,98533.79
2018-02-22T00:26:25.206Z,98530.27
2018-02-22T00:27:28.433Z,98536.44
2018-02-22T00:28:31.369Z,98522.87
2018-02-22T00:29:34.291Z,98521.80
2018-02-22T00:30:37.232Z,98523.83
2018-02-22T00:31:40.131Z,98520.63
2018-02-22T00:32:42.996Z,98520.68
2018-02-22T00:33:46.124Z,98524.78
2018-02-22T00:34:48.989Z,98515.55
2018-02-22T00:35:51.887Z,98518.46
2018-02-22T00:36:54.803Z,98518.33
2018-02-22T00:37:57.733Z,98517.00
2018-02-22T00:39:00.631Z,98519.75
2018-02-22T00:40:03.854Z,98523.83
2018-02-22T00:41:06.785Z,98514.30
2018-02-22T00:42:09.751Z,98510.89
2018-02-22T00:43:12.689Z,98514.37
2018-02-22T00:44:15.624Z,98512.91
2018-02-22T00:45:18.553Z,98514.81
2018-02-22T00:46:21.763Z,98520.80
2018-02-22T00:47:24.721Z,98516.11
2018-02-22T00:48:27.561Z,98517.95
2018-02-22T00:49:30.411Z,98514.37
2018-02-22T00:50:33.296Z,98508.99
2018-02-22T00:51:36.244Z,98514.70
2018-02-22T00:52:39.434Z,98508.59
2018-02-22T00:53:42.390Z,98510.61
2018-02-22T00:54:45.305Z,98509.89
2018-02-22T00:55:48.226Z,98508.76
2018-02-22T00:56:51.170Z,98507.37
2018-02-22T00:57:54.099Z,98503.12
2018-02-22T00:58:57.356Z,98507.98
2018-02-22T01:00:00.323Z,98501.09
2018-02-22T01:01:03.278Z,98503.11
2018-02-22T01:02:06.238Z,98498.47
2018-02-22T01:03:09.216Z,98505.12
2018-02-22T01:04:12.292Z,98501.48
2018-02-22T01:05:15.527Z,98500.05
2018-02-22T01:06:18.518Z,98494.45
2018-02-22T01:07:21.430Z,98494.34
2018-02-22T01:08:24.383Z,98499.37
2018-02-22T01:09:27.316Z,98498.65
2018-02-22T01:10:30.316Z,98497.07
2018-02-22T01:11:33.547Z,98499.60
2018-02-22T01:12:36.482Z,98495.72
2018-02-22T01:13:39.415Z,98497.45
2018-02-22T01:14:42.332Z,98500.89
2018-02-22T01:15:45.232Z,98491.19
2018-02-22T01:16:48.166Z,98492.53
2018-02-22T01:17:51.443Z,98491.08
2018-02-22T01:18:54.385Z,98491.03
2018-02-22T01:19:57.302Z,98493.27
2018-02-22T01:21:00.276Z,98493.67
2018-02-22T01:22:03.263Z,98497.58
2018-02-22T01:23:06.191Z,98499.03
2018-02-22T01:24:09.374Z,98490.69
2018-02-22T01:25:12.267Z,98494.10
2018-02-22T01:26:15.121Z,98497.13
2018-02-22T01:27:17.979Z,98497.40
2018-02-22T01:28:20.850Z,98499.91
2018-02-22T01:29:23.738Z,98489.91
2018-02-22T01:30:26.929Z,98495.28
2018-02-22T01:31:29.825Z,98498.58
2018-02-22T01:32:32.692Z,98494.83
2018-02-22T01:33:35.583Z,98494.66
2018-02-22T01:34:38.471Z,98503.91
2018-02-22T01:35:41.373Z,98505.06
2018-02-22T01:36:44.616Z,98508.59
2018-02-22T01:37:47.536Z,98504.63
2018-02-22T01:38:50.453Z,98508.05
2018-02-22T01:39:53.284Z,98510.13
2018-02-22T01:40:56.136Z,98506.64
2018-02-22T01:41:58.991Z,98511.17
2018-02-22T01:43:02.154Z,98507.55
2018-02-22T01:44:04.992Z,98509.05
2018-02-22T01:45:07.825Z,98507.81
2018-02-22T01:46:10.659Z,98511.68
2018-02-22T01:47:13.530Z,98501.27
2018-02-22T01:48:16.370Z,98496.02
2018-02-22T01:49:19.545Z,98492.20
2018-02-22T01:50:22.397Z,98496.92
2018-02-22T01:51:25.219Z,98489.29
2018-02-22T01:52:28.068Z,98491.81
2018-02-22T01:53:30.971Z,98493.49
2018-02-22T01:54:33.907Z,98491.08
2018-02-22T01:55:37.253Z,98496.05
2018-02-22T01:56:40.099Z,98498.48
2018-02-22T01:57:42.992Z,98491.26
2018-02-22T01:58:45.782Z,98494.00
2018-02-22T01:59:48.660Z,98492.27
2018-02-22T02:00:51.445Z,98492.20
2018-02-22T02:01:54.523Z,98488.78
2018-02-22T02:02:57.314Z,98493.05
2018-02-22T02:04:00.120Z,98482.36
2018-02-22T02:05:02.980Z,98487.50
2018-02-22T02:06:05.795Z,98482.35
2018-02-22T02:07:08.656Z,98485.55
2018-02-22T02:08:11.790Z,98484.02
2018-02-22T02:09:14.644Z,98482.73
2018-02-22T02:10:17.470Z,98477.81
2018-02-22T02:11:20.327Z,98478.70
2018-02-22T02:12:23.170Z,98484.86
2018-02-22T02:13:26.017Z,98483.18
2018-02-22T02:14:29.306Z,98481.84
2018-02-22T02:15:32.175Z,98482.97
2018-02-22T02:16:35.017Z,98481.23
2018-02-22T02:17:37.873Z,98483.48
2018-02-22T02:18:40.733Z,98481.91
2018-02-22T02:19:43.584Z,98479.39
2018-02-22T02:20:46.722Z,98480.07
2018-02-22T02:21:49.570Z,98479.84
2018-02-22T02:22:52.424Z,98476.55
2018-02-22T02:23:55.278Z,98475.36
2018-02-22T02:24:58.136Z,98470.60
2018-02-22T02:26:00.999Z,98478.26
2018-02-22T02:27:04.143Z,98474.07
2018-02-22T02:28:08.960Z,98479.38
2018-02-22T02:29:11.841Z,98471.05
2018-02-22T02:30:14.679Z,98470.05
2018-02-22T02:31:17.504Z,98473.69
2018-02-22T02:32:21.309Z,98463.51
2018-02-22T02:33:24.446Z,98465.07
2018-02-22T02:34:27.421Z,98468.16
2018-02-22T02:35:30.310Z,98470.09
2018-02-22T02:36:33.169Z,98470.66
2018-02-22T02:37:36.002Z,98467.63
2018-02-22T02:38:39.056Z,98468.68
2018-02-22T02:39:42.304Z,98472.05
2018-02-22T02:40:45.295Z,98476.19
2018-02-22T02:41:48.268Z,98475.18
2018-02-22T02:42:51.240Z,98479.33
2018-02-22T02:43:54.197Z,98473.74
2018-02-22T02:44:57.168Z,98479.98
2018-02-22T02:46:00.411Z,98476.86
2018-02-22T02:47:03.365Z,98476.90
2018-02-22T02:48:06.305Z,98471.99
2018-02-22T02:49:09.279Z,98472.55
2018-02-22T02:50:12.260Z,98472.56
2018-02-22T02:51:15.219Z,98473.73
2018-02-22T02:52:18.522Z,98473.73
2018-02-22T02:53:21.512Z,98477.70
2018-02-22T02:54:24.377Z,98464.42
2018-02-22T02:55:27.356Z,98470.66
2018-02-22T02:56:30.193Z,98476.90
2018-02-22T02:57:33.051Z,98475.41
2018-02-22T02:58:36.198Z,98475.69
2018-02-22T02:59:39.057Z,98476.90
2018-02-22T03:00:41.937Z,98473.29
2018-02-22T03:01:44.914Z,98477.81
2018-02-22T03:02:47.754Z,98478.02
2018-02-22T03:03:50.595Z,98478.41
2018-02-22T03:04:53.738Z,98476.72
2018-02-22T03:05:56.591Z,98476.96
2018-02-22T03:06:59.445Z,98477.11
2018-02-22T03:08:02.292Z,98471.69
2018-02-22T03:09:05.220Z,98477.13
2018-02-22T03:10:08.151Z,98465.03
2018-02-22T03:11:11.437Z,98469.00
2018-02-22T03:12:14.378Z,98471.57
2018-02-22T03:13:17.322Z,98474.03
2018-02-22T03:14:20.813Z,98474.22
2018-02-22T03:15:23.768Z,98474.03
2018-02-22T03:16:27.534Z,98471.41
2018-02-22T03:17:30.803Z,98470.95
2018-02-22T03:18:33.758Z,98475.45
2018-02-22T03:19:36.711Z,98480.43
2018-02-22T03:20:39.670Z,98474.45
2018-02-22T03:21:42.620Z,98470.40
2018-02-22T03:22:45.649Z,98474.45
2018-02-22T03:23:48.884Z,98483.26
2018-02-22T03:24:51.884Z,98481.36
2018-02-22T03:25:54.869Z,98479.79
2018-02-22T03:26:57.822Z,98477.50
2018-02-22T03:28:00.793Z,98478.89
2018-02-22T03:29:03.756Z,98477.05
2018-02-22T03:30:06.982Z,98468.41
2018-02-22T03:31:09.935Z,98477.41
2018-02-22T03:32:12.870Z,98476.69
2018-02-22T03:33:15.741Z,98480.12
2018-02-22T03:34:18.617Z,98487.59
2018-02-22T03:35:21.498Z,98479.37
2018-02-22T03:36:24.635Z,98484.23
2018-02-22T03:37:27.521Z,98479.88
2018-02-22T03:38:30.357Z,98482.00
2018-02-22T03:39:33.239Z,98481.12
2018-02-22T03:40:36.081Z,98484.60
2018-02-22T03:41:38.939Z,98484.31
2018-02-22T03:42:42.085Z,98487.19
2018-02-22T03:43:45.066Z,98480.91
2018-02-22T03:44:47.996Z,98480.23
2018-02-22T03:45:50.959Z,98479.09
2018-02-22T03:46:53.921Z,98472.60
2018-02-22T03:47:56.856Z,98480.27
2018-02-22T03:49:00.114Z,98479.14
2018-02-22T03:50:03.061Z,98481.88
2018-02-22T03:51:06.384Z,98485.70
2018-02-22T03:52:09.366Z,98475.70
2018-02-22T03:53:12.340Z,98469.83
2018-02-22T03:54:15.335Z,98473.05
2018-02-22T03:55:18.777Z,98482.11
2018-02-22T03:56:21.715Z,98480.84
2018-02-22T03:57:24.697Z,98478.50
2018-02-22T03:58:27.661Z,98481.73
2018-02-22T03:59:30.612Z,98479.33
2018-02-22T04:00:33.625Z,98479.73
2018-02-22T04:01:36.860Z,98486.25
2018-02-22T04:02:39.794Z,98485.57
2018-02-22T04:03:42.737Z,98479.95
2018-02-22T04:04:45.691Z,98476.48
2018-02-22T04:05:48.661Z,98484.09
2018-02-22T04:06:51.621Z,98486.75
2018-02-22T04:07:54.836Z,98488.64
2018-02-22T04:08:57.808Z,98487.76
2018-02-22T04:10:00.763Z,98479.14
2018-02-22T04:11:03.724Z,98478.14
2018-02-22T04:12:06.652Z,98476.18
2018-02-22T04:13:09.585Z,98477.27
2018-02-22T04:14:12.820Z,98490.27
2018-02-22T04:15:15.777Z,98482.27
2018-02-22T04:16:18.702Z,98483.00
2018-02-22T04:17:21.603Z,98486.05
2018-02-22T04:18:24.533Z,98478.64
2018-02-22T04:19:27.507Z,98483.92
2018-02-22T04:20:30.844Z,98483.97
2018-02-22T04:21:33.926Z,98481.52
2018-02-22T04:22:36.843Z,98480.77
2018-02-22T04:23:39.788Z,98481.30
2018-02-22T04:24:42.771Z,98485.25
2018-02-22T04:25:45.737Z,98478.83
2018-02-22T04:26:48.993Z,98488.05
2018-02-22T04:27:51.978Z,98481.00
2018-02-22T04:28:54.912Z,98484.92
2018-02-22T04:29:57.880Z,98481.95
2018-02-22T04:31:00.819Z,98487.82
2018-02-22T04:32:03.705Z,98490.45
2018-02-22T04:33:06.930Z,98482.08
2018-02-22T04:34:09.859Z,98486.30
2018-02-22T04:35:12.783Z,98485.93
2018-02-22T04:36:16.572Z,98485.31
2018-02-22T04:37:19.608Z,98488.33
2018-02-22T04:38:22.562Z,98487.04
2018-02-22T04:39:25.785Z,98485.38
2018-02-22T04:40:28.727Z,98480.78
2018-02-22T04:41:31.722Z,98489.45
2018-02-22T04:42:34.653Z,98487.39
2018-02-22T04:43:44.144Z,98487.80
2018-02-22T04:44:49.762Z,98486.77
2018-02-22T04:45:53.183Z,98488.77
2018-02-22T04:46:56.067Z,98488.55
2018-02-22T04:47:58.991Z,98490.73
2018-02-22T04:49:01.893Z,98491.08
2018-02-22T04:50:04.788Z,98494.53
2018-02-22T04:51:07.645Z,98498.73
2018-02-22T04:52:10.569Z,98490.13
2018-02-22T04:53:13.447Z,98497.59
2018-02-22T04:54:16.403Z,98494.26
2018-02-22T04:55:19.449Z,98491.52
2018-02-22T04:56:22.413Z,98492.48
2018-02-22T04:57:25.653Z,98495.11
2018-02-22T04:58:28.618Z,98503.05
2018-02-22T04:59:31.574Z,98497.60
2018-02-22T05:00:34.511Z,98501.70
2018-02-22T05:01:37.452Z,98504.59
2018-02-22T05:02:40.461Z,98502.52
2018-02-22T05:03:43.726Z,98501.07
2018-02-22T05:04:46.722Z,98507.78
2018-02-22T05:05:49.641Z,98500.07
2018-02-22T05:06:52.592Z,98501.79
2018-02-22T05:07:55.534Z,98505.59
2018-02-22T05:08:58.478Z,98508.41
2018-02-22T05:10:01.752Z,98500.86
2018-02-22T05:11:04.730Z,98502.52
2018-02-22T05:12:07.693Z,98507.30
2018-02-22T05:13:10.590Z,98497.56
2018-02-22T05:14:13.675Z,98505.28
2018-02-22T05:15:16.561Z,98509.30
2018-02-22T05:16:19.450Z,98507.55
2018-02-22T05:17:22.400Z,98504.87
2018-02-22T05:18:25.368Z,98504.14
2018-02-22T05:19:28.297Z,98505.09
2018-02-22T05:20:31.232Z,98514.25
2018-02-22T05:21:34.551Z,98508.95
2018-02-22T05:22:37.478Z,98508.00
2018-02-22T05:23:40.476Z,98500.36
2018-02-22T05:24:43.487Z,98503.59
2018-02-22T05:25:46.444Z,98498.73
2018-02-22T05:26:49.360Z,98495.59
2018-02-22T05:27:52.557Z,98505.88
2018-02-22T05:28:55.504Z,98493.92
2018-02-22T05:29:58.432Z,98497.39
2018-02-22T05:31:01.394Z,98495.71
2018-02-22T05:32:04.347Z,98493.76
2018-02-22T05:33:07.305Z,98503.19
2018-02-22T05:34:10.600Z,98495.03
2018-02-22T05:35:13.520Z,98498.22
2018-02-22T05:36:16.471Z,98504.26
2018-02-22T05:37:19.391Z,98493.44
2018-02-22T05:38:22.369Z,98494.53
2018-02-22T05:39:25.294Z,98496.20
2018-02-22T05:40:28.179Z,98495.94
2018-02-22T05:41:31.050Z,98493.55
2018-02-22T05:42:34.087Z,98492.04
2018-02-22T05:43:36.987Z,98506.31
2018-02-22T05:44:39.888Z,98498.78
2018-02-22T05:45:43.133Z,98499.28
2018-02-22T05:46:46.064Z,98506.13
2018-02-22T05:47:49.089Z,98504.94
2018-02-22T05:48:52.073Z,98506.94
2018-02-22T05:49:55.025Z,98504.38
2018-02-22T05:50:58.318Z,98500.53
2018-02-22T05:52:01.534Z,98503.44
2018-02-22T05:53:04.490Z,98499.12
2018-02-22T05:54:07.431Z,98501.70
2018-02-22T05:55:10.396Z,98510.91
2018-02-22T05:56:13.350Z,98505.61
2018-02-22T05:57:16.363Z,98508.23
2018-02-22T05:58:19.673Z,98512.33
2018-02-22T05:59:22.576Z,98509.22
2018-02-22T06:00:25.561Z,98511.45
2018-02-22T06:01:28.433Z,98512.35
2018-02-22T06:02:31.356Z,98516.70
2018-02-22T06:03:34.302Z,98513.28
2018-02-22T06:04:37.534Z,98511.62
2018-02-22T06:05:40.426Z,98510.45
2018-02-22T06:06:43.273Z,98513.57
2018-02-22T06:07:46.102Z,98518.48
2018-02-22T06:08:48.908Z,98519.17
2018-02-22T06:09:51.743Z,98524.15
2018-02-22T06:10:55.170Z,98518.67
2018-02-22T06:11:58.060Z,98519.89
2018-02-22T06:13:00.906Z,98522.37
2018-02-22T06:14:03.781Z,98518.50
2018-02-22T06:15:06.670Z,98521.52
2018-02-22T06:16:09.665Z,98521.78
2018-02-22T06:17:12.870Z,98523.19
2018-02-22T06:18:15.719Z,98520.45
2018-02-22T06:19:18.629Z,98522.25
2018-02-22T06:20:21.486Z,98523.91
2018-02-22T06:21:24.343Z,98528.39
2018-02-22T06:22:27.575Z,98526.09
2018-02-22T06:23:30.861Z,98526.37
2018-02-22T06:24:33.772Z,98526.82
2018-02-22T06:25:36.713Z,98527.38
2018-02-22T06:26:39.647Z,98531.13
2018-02-22T06:27:42.539Z,98530.05
2018-02-22T06:28:45.446Z,98527.76
2018-02-22T06:29:48.893Z,98530.55
2018-02-22T06:30:51.874Z,98532.01
2018-02-22T06:31:55.554Z,98530.52
2018-02-22T06:32:58.673Z,98533.52
2018-02-22T06:34:01.696Z,98529.67
2018-02-22T06:35:04.686Z,98540.23
2018-02-22T06:36:08.008Z,98535.59
2018-02-22T06:37:10.958Z,98533.36
2018-02-22T06:38:13.947Z,98533.89
2018-02-22T06:39:16.908Z,98539.86
2018-02-22T06:40:19.849Z,98544.66
2018-02-22T06:41:22.722Z,98539.36
2018-02-22T06:42:25.881Z,98539.77
2018-02-22T06:43:28.767Z,98540.13
2018-02-22T06:44:31.642Z,98538.06
2018-02-22T06:45:34.507Z,98536.05
2018-02-22T06:46:37.342Z,98539.11
2018-02-22T06:47:40.121Z,98539.20
2018-02-22T06:48:43.268Z,98543.66
2018-02-22T06:49:46.094Z,98542.54
2018-02-22T06:50:48.956Z,98546.17
2018-02-22T06:51:51.836Z,98543.95
2018-02-22T06:52:54.832Z,98555.84
2018-02-22T06:53:57.770Z,98556.34
2018-02-22T06:55:01.095Z,98549.30
2018-02-22T06:56:04.017Z,98546.83
2018-02-22T06:57:06.962Z,98554.48
2018-02-22T06:58:09.911Z,98558.42
2018-02-22T06:59:12.889Z,98558.76
2018-02-22T07:00:15.844Z,98552.16
2018-02-22T07:01:19.368Z,98552.21
2018-02-22T07:02:22.285Z,98552.89
2018-02-22T07:03:25.208Z,98554.38
2018-02-22T07:04:28.132Z,98550.12
2018-02-22T07:05:31.916Z,98548.69
2018-02-22T07:06:34.779Z,98551.77
2018-02-22T07:07:37.963Z,98549.48
2018-02-22T07:08:40.995Z,98550.75
2018-02-22T07:09:44.012Z,98551.81
2018-02-22T07:10:46.994Z,98555.11
2018-02-22T07:11:49.953Z,98555.94
2018-02-22T07:12:52.884Z,98554.45
2018-02-22T07:13:56.129Z,98558.52
2018-02-22T07:14:59.133Z,98548.64
2018-02-22T07:16:02.093Z,98551.59
2018-02-22T07:17:05.063Z,98552.34
2018-02-22T07:18:08.057Z,98552.95
2018-02-22T07:19:11.014Z,98552.09
2018-02-22T07:20:14.328Z,98548.34
2018-02-22T07:21:17.310Z,98553.25
2018-02-22T07:22:20.253Z,98557.66
2018-02-22T07:23:23.212Z,98558.26
2018-02-22T07:24:26.203Z,98552.94
2018-02-22T07:25:29.173Z,98555.01
2018-02-22T07:26:32.435Z,98562.78
2018-02-22T07:27:35.371Z,98563.36
2018-02-22T07:28:38.347Z,98552.75
2018-02-22T07:29:41.325Z,98561.18
2018-02-22T07:30:44.323Z,98561.34
2018-02-22T07:31:47.303Z,98564.39
2018-02-22T07:32:50.532Z,98555.61
2018-02-22T07:33:53.563Z,98554.17
2018-02-22T07:34:56.533Z,98554.91
2018-02-22T07:35:59.500Z,98563.05
2018-02-22T07:37:02.522Z,98558.56
2018-02-22T07:38:05.444Z,98557.09
2018-02-22T07:39:08.732Z,98558.94
2018-02-22T07:40:11.751Z,98566.08
2018-02-22T07:41:14.693Z,98563.13
2018-02-22T07:42:17.669Z,98561.63
2018-02-22T07:43:20.584Z,98562.48
2018-02-22T07:44:23.464Z,98563.57
2018-02-22T07:45:26.604Z,98557.96
2018-02-22T07:46:29.451Z,98563.37
2018-02-22T07:47:32.982Z,98567.53
2018-02-22T07:48:35.876Z,98563.98
2018-02-22T07:49:38.752Z,98570.25
2018-02-22T07:50:41.669Z,98561.53
2018-02-22T07:51:45.040Z,98566.05
2018-02-22T07:52:47.966Z,98555.33
2018-02-22T07:53:50.834Z,98562.80
2018-02-22T07:54:53.827Z,98556.41
2018-02-22T07:55:56.683Z,98554.81
2018-02-22T07:56:59.527Z,98556.05
2018-02-22T07:58:02.678Z,98556.97
2018-02-22T07:59:05.564Z,98556.86
2018-02-22T08:00:08.626Z,98555.11
2018-02-22T08:01:11.491Z,98560.39
2018-02-22T08:02:14.433Z,98553.41
2018-02-22T08:04:50.158Z,98562.02
2018-02-22T08:05:53.145Z,98564.19
2018-02-22T08:06:56.174Z,98562.09
2018-02-22T08:07:59.161Z,98563.34
2018-02-22T08:09:02.310Z,98564.88
2018-02-22T08:10:05.586Z,98568.36
2018-02-22T08:11:08.447Z,98566.46
2018-02-22T08:12:11.376Z,98564.06
2018-02-22T08:13:15.241Z,98566.32
2018-02-22T08:14:18.256Z,98567.03
2018-02-22T08:15:21.265Z,98570.63
2018-02-22T08:16:24.971Z,98567.06
2018-02-22T08:17:27.940Z,98568.19
2018-02-22T08:18:30.823Z,98565.30
2018-02-22T08:19:33.754Z,98578.10
2018-02-22T08:20:36.774Z,98577.75
2018-02-22T08:21:39.803Z,98566.06
2018-02-22T08:22:43.082Z,98569.45
2018-02-22T08:23:46.101Z,98565.07
2018-02-22T08:24:49.174Z,98567.63
2018-02-22T08:25:52.190Z,98570.91
2018-02-22T08:26:55.158Z,98568.20
2018-02-22T08:27:58.382Z,98566.37
2018-02-22T08:29:02.130Z,98563.90
2018-02-22T08:30:05.122Z,98562.72
2018-02-22T08:31:08.028Z,98562.25
2018-02-22T08:32:10.926Z,98562.60
2018-02-22T08:33:13.842Z,98563.58
2018-02-22T08:34:16.824Z,98569.02
2018-02-22T08:35:20.118Z,98568.17
2018-02-22T08:36:23.147Z,98557.48
2018-02-22T08:37:26.112Z,98565.88
2018-02-22T08:38:29.054Z,98563.62
2018-02-22T08:39:32.060Z,98565.63
2018-02-22T08:40:35.135Z,98563.88
2018-02-22T08:41:38.472Z,98563.68
2018-02-22T08:42:41.512Z,98558.15
2018-02-22T08:43:44.476Z,98563.00
2018-02-22T08:44:47.460Z,98557.26
2018-02-22T08:45:50.426Z,98560.44
2018-02-22T08:46:53.442Z,98557.46
2018-02-22T08:47:56.904Z,98565.38
2018-02-22T08:48:59.935Z,98568.67
2018-02-22T08:50:02.945Z,98571.62
2018-02-22T08:51:05.986Z,98556.28
2018-02-22T08:52:08.968Z,98552.80
2018-02-22T08:53:11.969Z,98552.66
2018-02-22T08:54:15.431Z,98563.13
2018-02-22T08:55:18.407Z,98555.61
2018-02-22T08:56:21.397Z,98564.13
2018-02-22T08:57:24.352Z,98560.94
2018-02-22T08:58:27.402Z,98547.23
2018-02-22T08:59:30.464Z,98556.03
2018-02-22T09:00:34.184Z,98557.38
2018-02-22T09:01:37.196Z,98555.88
2018-02-22T09:02:40.308Z,98562.63
2018-02-22T09:03:43.538Z,98558.55
2018-02-22T09:04:46.587Z,98556.66
2018-02-22T09:05:49.564Z,98551.00
2018-02-22T09:06:53.027Z,98553.95
2018-02-22T09:07:56.311Z,98555.33
2018-02-22T09:08:59.750Z,98560.19
2018-02-22T09:10:02.881Z,98554.84
2018-02-22T09:11:05.863Z,98558.27
2018-02-22T09:12:08.844Z,98553.53
2018-02-22T09:13:12.556Z,98543.91
2018-02-22T09:14:15.481Z,98549.24
2018-02-22T09:15:18.610Z,98550.05
2018-02-22T09:16:21.545Z,98545.40
2018-02-22T09:17:24.442Z,98544.70
2018-02-22T09:18:27.846Z,98551.94
2018-02-22T09:19:31.209Z,98546.41
2018-02-22T09:20:34.160Z,98541.00
2018-02-22T09:21:43.690Z,98547.38
2018-02-22T09:22:46.829Z,98550.98
2018-02-22T09:23:49.972Z,98540.02
2018-02-22T09:24:52.926Z,98551.73
2018-02-22T09:25:56.233Z,98542.92
2018-02-22T09:26:59.190Z,98550.78
2018-02-22T09:28:02.188Z,98546.05
2018-02-22T09:29:05.123Z,98551.34
2018-02-22T09:30:08.090Z,98537.80
2018-02-22T09:31:10.999Z,98535.95
2018-02-22T09:32:14.199Z,98540.85
2018-02-22T09:33:17.212Z,98539.81
2018-02-22T09:34:20.198Z,98548.47
2018-02-22T09:35:24.419Z,98547.97
2018-02-22T09:36:27.446Z,98553.95
2018-02-22T09:37:30.498Z,98554.10
2018-02-22T09:38:35.652Z,98545.37
2018-02-22T09:39:38.673Z,98543.95
2018-02-22T09:40:41.652Z,98547.80
2018-02-22T09:41:44.653Z,98552.49
2018-02-22T09:42:47.612Z,98550.36
2018-02-22T09:43:50.590Z,98537.39
2018-02-22T09:44:53.962Z,98540.59
2018-02-22T09:45:56.928Z,98541.22
2018-02-22T09:46:59.918Z,98530.28
2018-02-22T09:48:02.878Z,98540.12
2018-02-22T09:49:05.857Z,98540.67
2018-02-22T09:50:08.869Z,98546.17
2018-02-22T09:51:13.047Z,98542.33
2018-02-22T09:52:16.644Z,98543.08
2018-02-22T09:53:19.637Z,98545.31
2018-02-22T09:54:22.619Z,98544.02
2018-02-22T09:55:25.586Z,98548.50
2018-02-22T09:56:28.531Z,98541.30
2018-02-22T09:57:31.881Z,98538.25
2018-02-22T09:58:34.914Z,98539.78
2018-02-22T09:59:37.891Z,98544.13
2018-02-22T10:00:40.899Z,98533.19
2018-02-22T10:01:43.851Z,98532.41
2018-02-22T10:02:46.813Z,98541.17
2018-02-22T10:03:50.108Z,98535.14
2018-02-22T10:04:53.009Z,98528.09
2018-02-22T10:05:55.836Z,98532.22
2018-02-22T10:06:58.688Z,98533.46
2018-02-22T10:08:01.542Z,98521.42
2018-02-22T10:09:04.412Z,98519.67
2018-02-22T10:10:07.594Z,98522.13
2018-02-22T10:11:10.442Z,98535.83
2018-02-22T10:12:13.302Z,98523.84
2018-02-22T10:13:16.151Z,98533.59
2018-02-22T10:14:18.994Z,98539.98
2018-02-22T10:15:21.846Z,98533.64
2018-02-22T10:16:24.998Z,98523.69
2018-02-22T10:17:27.861Z,98532.92
2018-02-22T10:18:30.718Z,98515.36
2018-02-22T10:19:33.605Z,98524.80
2018-02-22T10:20:36.457Z,98531.18
2018-02-22T10:21:39.443Z,98528.34
2018-02-22T10:22:42.769Z,98533.84
2018-02-22T10:23:46.893Z,98533.13
2018-02-22T10:24:50.310Z,98537.70
2018-02-22T10:25:53.307Z,98534.27
2018-02-22T10:26:56.309Z,98533.58
2018-02-22T10:27:59.310Z,98529.08
2018-02-22T10:29:02.513Z,98527.55
2018-02-22T10:30:05.630Z,98535.02
2018-02-22T10:31:08.496Z,98518.75
2018-02-22T10:32:11.409Z,98533.76
2018-02-22T10:33:14.620Z,98537.95
2018-02-22T10:34:17.531Z,98530.31
2018-02-22T10:35:20.754Z,98523.56
2018-02-22T10:36:23.691Z,98519.52
2018-02-22T10:37:26.611Z,98533.41
2018-02-22T10:38:29.621Z,98530.17
2018-02-22T10:39:32.606Z,98531.45
2018-02-22T10:40:35.619Z,98532.25
2018-02-22T10:41:39.287Z,98524.47
2018-02-22T10:42:42.571Z,98521.06
2018-02-22T10:43:46.028Z,98520.99
2018-02-22T10:44:49.284Z,98525.01
2018-02-22T10:45:52.501Z,98519.94
2018-02-22T10:46:55.750Z,98515.64
2018-02-22T10:47:58.945Z,98511.44
2018-02-22T10:49:02.217Z,98527.88
2018-02-22T10:50:05.504Z,98517.06
2018-02-22T10:51:08.979Z,98509.41
2018-02-22T10:52:12.375Z,98513.27
2018-02-22T10:53:16.233Z,98508.36
2018-02-22T10:54:20.064Z,98507.06
2018-02-22T10:55:23.456Z,98513.28
2018-02-22T10:56:26.732Z,98514.83
2018-02-22T10:57:29.993Z,98513.47
2018-02-22T10:58:33.006Z,98509.09
2018-02-22T10:59:36.116Z,98505.73
2018-02-22T11:00:44.159Z,98502.63
2018-02-22T11:02:52.634Z,98507.69
2018-02-22T11:03:55.824Z,98509.52
2018-02-22T11:05:00.473Z,98501.79
2018-02-22T11:06:03.876Z,98498.75
2018-02-22T11:07:07.679Z,98502.98
2018-02-22T11:08:11.064Z,98506.31
2018-02-22T11:09:14.378Z,98499.27
2018-02-22T11:10:17.786Z,98499.33
2018-02-22T11:11:21.309Z,98492.27
2018-02-22T11:12:24.830Z,98488.06
2018-02-22T11:13:28.204Z,98493.97
2018-02-22T11:14:31.661Z,98486.88
2018-02-22T11:15:35.044Z,98491.94
2018-02-22T11:16:38.428Z,98491.97
2018-02-22T11:17:41.865Z,98498.75
2018-02-22T11:18:45.904Z,98496.41
2018-02-22T11:19:49.281Z,98489.97
2018-02-22T11:20:52.649Z,98492.63
2018-02-22T11:21:56.026Z,98481.11
2018-02-22T11:22:59.348Z,98496.45
2018-02-22T11:24:02.677Z,98493.38
2018-02-22T11:25:06.346Z,98496.67
2018-02-22T11:26:09.696Z,98493.50
2018-02-22T11:27:13.114Z,98499.56
2018-02-22T11:28:16.522Z,98497.12
2018-02-22T11:29:20.075Z,98495.56
2018-02-22T11:30:23.355Z,98486.45
2018-02-22T11:31:27.489Z,98496.23
2018-02-22T11:32:30.947Z,98490.33
2018-02-22T11:33:34.386Z,98485.52
2018-02-22T11:34:37.759Z,98489.50
2018-02-22T11:35:41.053Z,98476.89
2018-02-22T11:36:44.464Z,98484.23
2018-02-22T11:37:48.376Z,98486.58
2018-02-22T11:39:00.494Z,98486.86
2018-02-22T11:40:04.320Z,98479.70
2018-02-22T11:41:08.679Z,98494.90
2018-02-22T11:42:12.089Z,98499.02
2018-02-22T11:43:15.581Z,98488.33
2018-02-22T11:44:20.105Z,98486.84
2018-02-22T11:45:23.563Z,98481.38
2018-02-22T11:46:27.359Z,98486.70
2018-02-22T11:47:30.891Z,98489.27
2018-02-22T11:48:34.261Z,98482.94
2018-02-22T11:49:37.921Z,98481.30
2018-02-22T11:50:41.748Z,98487.86
2018-02-22T11:51:45.234Z,98488.11
2018-02-22T11:52:49.418Z,98476.28
2018-02-22T11:53:52.971Z,98494.98
2018-02-22T11:54:56.575Z,98487.13
2018-02-22T11:56:00.073Z,98486.05
2018-02-22T11:57:04.026Z,98487.83
2018-02-22T11:58:07.717Z,98482.68
2018-02-22T11:59:11.217Z,98485.76
2018-02-22T12:00:14.642Z,98480.36
2018-02-22T12:01:18.613Z,98474.73
2018-02-22T12:02:22.813Z,98480.94
2018-02-22T12:03:27.244Z,98474.52
2018-02-22T12:04:30.619Z,98484.11
2018-02-22T12:05:34.913Z,98474.59
2018-02-22T12:06:38.560Z,98484.14
2018-02-22T12:07:42.240Z,98471.16
2018-02-22T12:08:46.566Z,98477.41
2018-02-22T12:09:50.341Z,98484.86
2018-02-22T12:10:54.574Z,98481.39
2018-02-22T12:11:58.300Z,98477.25
2018-02-22T12:13:02.133Z,98479.59
2018-02-22T12:14:05.161Z,98469.50
2018-02-22T12:15:08.313Z,98469.01
2018-02-22T12:16:11.706Z,98454.91
2018-02-22T12:17:14.770Z,98470.95
2018-02-22T12:18:17.746Z,98452.16
2018-02-22T12:19:21.550Z,98452.06
2018-02-22T12:20:24.709Z,98462.89
2018-02-22T12:21:27.849Z,98465.77
2018-02-22T12:22:31.077Z,98464.02
2018-02-22T12:23:34.326Z,98463.65